Terminal Aerodrome Forecast
Issued by NWS Charleston, WV

Current Version | Previous Version | Graphics & Text | Print | Product List | Glossary On
Versions: 1 2 3 4 5 6 7 8 9 10 11 12 13 14 15 16 17 18 19 20 21 22 23 24 25 26 27 28 29 30
000
FTUS41 KRLX 261100
TAFBKW
TAF
KBKW 261130Z 2612/2712 18008G13KT P6SM BKN060
     FM261500 22012G20KT P6SM BKN040
     FM262000 24012G22KT P6SM VCTS BKN040CB
     FM262300 31011G20KT 6SM -SHRA OVC020
     FM270100 33011G19KT 3SM -SHRA OVC015
     FM270300 33009G15KT 4SM -SHRA BR OVC015
     FM270800 32008KT 3SM -SHSN BR BKN015=

USA.gov is the U.S. government's official web portal to all federal, state and local government web resources and services.